createdAt,value
2022-11-26T00:00:45.903Z,0
2022-11-26T00:02:02.991Z,0
2022-11-26T00:03:19.997Z,0
2022-11-26T00:04:37.269Z,0
2022-11-26T00:05:53.891Z,0
2022-11-26T00:07:11.025Z,0
2022-11-26T00:08:28.115Z,0
2022-11-26T00:09:44.909Z,0
2022-11-26T00:11:01.915Z,0
2022-11-26T00:12:18.887Z,0
2022-11-26T00:13:36.360Z,0
2022-11-26T00:14:53.902Z,0
2022-11-26T00:16:10.913Z,0
2022-11-26T00:17:28.302Z,0
2022-11-26T00:18:46.043Z,0
2022-11-26T00:20:03.041Z,0
2022-11-26T00:21:19.905Z,0
2022-11-26T00:22:36.928Z,0
2022-11-26T00:23:53.997Z,0
2022-11-26T00:25:11.017Z,0
2022-11-26T00:26:27.912Z,0
2022-11-26T00:27:44.897Z,0
2022-11-26T00:29:01.952Z,0
2022-11-26T00:30:18.909Z,0
2022-11-26T00:31:36.895Z,0
2022-11-26T00:32:53.920Z,0
2022-11-26T00:34:11.084Z,0
2022-11-26T00:35:27.934Z,0
2022-11-26T00:36:44.940Z,0
2022-11-26T00:38:01.931Z,0
2022-11-26T00:39:18.990Z,0
2022-11-26T00:40:35.925Z,0
2022-11-26T00:41:52.984Z,0
2022-11-26T00:43:10.031Z,0
2022-11-26T00:44:26.935Z,0
2022-11-26T00:45:44.001Z,0
2022-11-26T00:47:01.616Z,0
2022-11-26T00:48:18.955Z,0
2022-11-26T00:49:35.953Z,0
2022-11-26T00:50:52.955Z,0
2022-11-26T00:52:09.962Z,0
2022-11-26T00:53:26.983Z,0
2022-11-26T00:54:44.569Z,0
2022-11-26T00:56:01.990Z,0
2022-11-26T00:57:19.006Z,0
2022-11-26T00:58:36.042Z,0
2022-11-26T00:59:53.028Z,0
2022-11-26T01:01:10.051Z,0
2022-11-26T01:02:27.127Z,0
2022-11-26T01:03:44.438Z,0
2022-11-26T01:05:02.097Z,0
2022-11-26T01:06:19.050Z,0
2022-11-26T01:07:36.105Z,0
2022-11-26T01:08:53.087Z,0
2022-11-26T01:10:10.014Z,0
2022-11-26T01:11:27.018Z,0
2022-11-26T01:12:43.978Z,0
2022-11-26T01:14:01.127Z,0
2022-11-26T01:15:18.135Z,0
2022-11-26T01:16:35.084Z,0
2022-11-26T01:17:52.749Z,0
2022-11-26T01:19:10.140Z,0
2022-11-26T01:20:27.070Z,0
2022-11-26T01:21:44.012Z,0
2022-11-26T01:23:01.151Z,0
2022-11-26T01:24:18.031Z,0
2022-11-26T01:25:35.019Z,0
2022-11-26T01:26:52.056Z,0.21
2022-11-26T01:28:09.016Z,0.17
2022-11-26T01:29:26.020Z,0.18
2022-11-26T01:30:43.111Z,0.16
2022-11-26T01:32:00.087Z,0.14
2022-11-26T01:33:17.010Z,0.08
2022-11-26T01:34:34.003Z,0.16
2022-11-26T01:35:51.002Z,0.17
2022-11-26T01:37:08.170Z,0
2022-11-26T01:38:25.002Z,0
2022-11-26T01:39:42.026Z,0
2022-11-26T01:40:59.036Z,0
2022-11-26T01:42:16.046Z,0
2022-11-26T01:43:33.395Z,0
2022-11-26T01:44:50.043Z,0
2022-11-26T01:46:07.294Z,0
2022-11-26T01:47:24.155Z,0
2022-11-26T01:48:41.087Z,0.21
2022-11-26T01:49:58.021Z,0
2022-11-26T01:51:15.033Z,0
2022-11-26T01:52:32.069Z,0.26
2022-11-26T01:53:49.048Z,0.15
2022-11-26T01:55:06.076Z,0
2022-11-26T01:56:23.046Z,0.3
2022-11-26T01:57:40.067Z,0.23
2022-11-26T01:58:57.072Z,0.32
2022-11-26T02:00:14.032Z,0.28
2022-11-26T02:01:31.225Z,0.21
2022-11-26T02:02:48.149Z,0.26
2022-11-26T02:04:05.311Z,0.32
2022-11-26T02:05:22.059Z,0.46
2022-11-26T02:06:39.038Z,0.38
2022-11-26T02:07:57.006Z,0.36
2022-11-26T02:09:14.051Z,0.42
2022-11-26T02:10:32.050Z,0.35
2022-11-26T02:11:49.081Z,0.26
2022-11-26T02:13:06.078Z,0.31
2022-11-26T02:14:23.151Z,0.28
2022-11-26T02:15:40.120Z,0.15
2022-11-26T02:16:57.150Z,0.11
2022-11-26T02:18:14.043Z,0.36
2022-11-26T02:19:31.158Z,0.35
2022-11-26T02:20:48.114Z,0.31
2022-11-26T02:22:05.116Z,0.09
2022-11-26T02:23:22.068Z,0.32
2022-11-26T02:24:39.369Z,0.31
2022-11-26T02:25:56.090Z,0.4
2022-11-26T02:27:13.109Z,0.37
2022-11-26T02:28:30.078Z,0.25
2022-11-26T02:29:47.094Z,0.4
2022-11-26T02:31:04.149Z,0.47
2022-11-26T02:32:21.076Z,0.19
2022-11-26T02:33:38.180Z,0.3
2022-11-26T02:34:55.135Z,0.32
2022-11-26T02:36:12.506Z,0.36
2022-11-26T02:37:30.103Z,0.29
2022-11-26T02:38:47.177Z,0.2
2022-11-26T02:40:04.109Z,0
2022-11-26T02:41:21.272Z,0
2022-11-26T02:42:38.198Z,0.23
2022-11-26T02:43:55.111Z,0.47
2022-11-26T02:45:12.086Z,0.2
2022-11-26T02:46:29.137Z,0
2022-11-26T02:47:46.164Z,0.3
2022-11-26T02:49:03.103Z,0.29
2022-11-26T02:50:20.106Z,0.3
2022-11-26T02:51:37.125Z,0.1
2022-11-26T02:52:54.776Z,0.23
2022-11-26T02:54:12.118Z,0
2022-11-26T02:55:29.124Z,0.31
2022-11-26T02:56:46.122Z,0.35
2022-11-26T02:58:03.198Z,0.35
2022-11-26T02:59:20.136Z,0.49
2022-11-26T03:00:37.137Z,0.27
2022-11-26T03:01:54.151Z,0
2022-11-26T03:03:11.148Z,0
2022-11-26T03:04:29.312Z,0
2022-11-26T03:05:46.161Z,0
2022-11-26T03:07:03.143Z,0
2022-11-26T03:08:20.143Z,0
2022-11-26T03:09:37.143Z,0
2022-11-26T03:10:54.141Z,0.09
2022-11-26T03:12:11.395Z,0.35
2022-11-26T03:13:29.332Z,0.45
2022-11-26T03:14:46.177Z,0.39
2022-11-26T03:16:03.229Z,0.43
2022-11-26T03:17:20.322Z,0.53
2022-11-26T03:18:37.133Z,0.49
2022-11-26T03:19:54.139Z,0.28
2022-11-26T03:21:11.212Z,0.19
2022-11-26T03:22:28.222Z,0.4
2022-11-26T03:23:45.150Z,0.35
2022-11-26T03:25:02.474Z,0.24
2022-11-26T03:26:19.164Z,0.16
2022-11-26T03:27:36.304Z,0.3
2022-11-26T03:28:53.167Z,0.37
2022-11-26T03:30:10.264Z,0.27
2022-11-26T03:31:27.195Z,0.31
2022-11-26T03:32:44.181Z,0
2022-11-26T03:34:01.753Z,0.43
2022-11-26T03:35:18.247Z,0.21
2022-11-26T03:36:35.173Z,0
2022-11-26T03:37:52.554Z,0.2
2022-11-26T03:39:09.886Z,0.5
2022-11-26T03:40:27.248Z,0.5
2022-11-26T03:41:44.276Z,0.65
2022-11-26T03:43:01.211Z,0.61
2022-11-26T03:44:18.244Z,0.26
2022-11-26T03:45:35.265Z,0.29
2022-11-26T03:46:52.178Z,0.28
2022-11-26T03:48:09.188Z,0.42
2022-11-26T03:49:26.218Z,0.54
2022-11-26T03:50:43.178Z,0.39
2022-11-26T03:52:00.205Z,0.34
2022-11-26T03:53:17.198Z,0.48
2022-11-26T03:54:34.218Z,0.68
2022-11-26T03:55:51.211Z,0.4
2022-11-26T03:57:08.235Z,0
2022-11-26T03:58:25.186Z,0.41
2022-11-26T03:59:42.516Z,0.46
2022-11-26T04:00:59.256Z,0.54
2022-11-26T04:02:16.234Z,0.49
2022-11-26T04:03:33.224Z,0.47
2022-11-26T04:04:50.197Z,0.63
2022-11-26T04:06:07.807Z,0.56
2022-11-26T04:07:25.320Z,0.35
2022-11-26T04:08:42.797Z,0.3
2022-11-26T04:10:00.272Z,0.13
2022-11-26T04:11:17.253Z,0.32
2022-11-26T04:12:34.249Z,0.41
2022-11-26T04:13:51.219Z,0.42
2022-11-26T04:15:08.272Z,0.41
2022-11-26T04:16:25.247Z,0.3
2022-11-26T04:17:42.212Z,0.31
2022-11-26T04:18:59.289Z,0
2022-11-26T04:20:17.444Z,0
2022-11-26T04:21:34.993Z,0
2022-11-26T04:22:52.282Z,0
2022-11-26T04:24:09.213Z,0
2022-11-26T04:25:26.268Z,0
2022-11-26T04:26:43.236Z,0
2022-11-26T04:28:00.298Z,0.3
2022-11-26T04:29:17.239Z,0.14
2022-11-26T04:30:34.259Z,0
2022-11-26T04:31:51.279Z,0
2022-11-26T04:33:08.274Z,0
2022-11-26T04:34:25.235Z,0
2022-11-26T04:35:42.239Z,0
2022-11-26T04:36:59.296Z,0
2022-11-26T04:38:17.324Z,0
2022-11-26T04:39:33.272Z,0
2022-11-26T04:40:50.245Z,0
2022-11-26T04:42:07.251Z,0
2022-11-26T04:43:25.104Z,0.15
2022-11-26T04:44:44.422Z,0
2022-11-26T04:46:01.350Z,0.24
2022-11-26T04:47:19.101Z,0.21
2022-11-26T04:48:36.854Z,0.14
2022-11-26T04:49:54.286Z,0.06
2022-11-26T04:51:11.291Z,0
2022-11-26T04:52:28.491Z,0
2022-11-26T04:53:45.285Z,0.13
2022-11-26T04:55:02.299Z,0
2022-11-26T04:56:19.263Z,0
2022-11-26T04:57:36.295Z,0
2022-11-26T04:58:53.308Z,0
2022-11-26T05:00:10.526Z,0
2022-11-26T05:01:27.440Z,0
2022-11-26T05:02:45.219Z,0
2022-11-26T05:04:03.236Z,0
2022-11-26T05:05:20.312Z,0
2022-11-26T05:06:37.316Z,0
2022-11-26T05:07:55.009Z,0
2022-11-26T05:09:12.361Z,0
2022-11-26T05:10:29.375Z,0
2022-11-26T05:11:46.341Z,0
2022-11-26T05:13:03.444Z,0
2022-11-26T05:14:20.389Z,0
2022-11-26T05:15:37.406Z,0
2022-11-26T05:16:54.382Z,0
2022-11-26T05:18:12.136Z,0
2022-11-26T05:19:29.793Z,0
2022-11-26T05:20:47.842Z,0
2022-11-26T05:22:05.588Z,0
2022-11-26T05:23:22.377Z,0
2022-11-26T05:24:39.642Z,0
2022-11-26T05:25:56.362Z,0
2022-11-26T05:27:13.602Z,0
2022-11-26T05:28:30.349Z,0
2022-11-26T05:29:47.755Z,0
2022-11-26T05:31:05.409Z,0
2022-11-26T05:32:22.417Z,0
2022-11-26T05:33:39.510Z,0
2022-11-26T05:35:00.157Z,0
2022-11-26T05:36:14.456Z,0
2022-11-26T05:37:32.133Z,0
2022-11-26T05:38:49.983Z,0
2022-11-26T05:40:07.587Z,0
2022-11-26T05:41:24.688Z,0
2022-11-26T05:42:42.167Z,0
2022-11-26T05:43:59.693Z,0
2022-11-26T05:45:17.410Z,0
2022-11-26T05:46:34.341Z,0
2022-11-26T05:47:51.496Z,0
2022-11-26T05:49:08.487Z,0
2022-11-26T05:50:25.350Z,0
2022-11-26T05:51:42.345Z,0
2022-11-26T05:52:59.412Z,0
2022-11-26T05:54:17.063Z,0
2022-11-26T05:55:34.406Z,0
2022-11-26T05:56:55.529Z,0
2022-11-26T05:58:08.368Z,0
2022-11-26T05:59:25.691Z,0
2022-11-26T06:00:42.422Z,0
2022-11-26T06:01:59.432Z,0
2022-11-26T06:03:19.961Z,0
2022-11-26T06:04:33.403Z,0
2022-11-26T06:05:50.398Z,0.13
2022-11-26T06:07:07.387Z,0
2022-11-26T06:08:24.403Z,0
2022-11-26T06:09:41.570Z,0
2022-11-26T06:10:58.397Z,0
2022-11-26T06:12:15.785Z,0
2022-11-26T06:13:33.394Z,0
2022-11-26T06:14:50.424Z,0
2022-11-26T06:16:07.493Z,0
2022-11-26T06:17:24.404Z,0
2022-11-26T06:18:41.453Z,0
2022-11-26T06:19:59.368Z,0
2022-11-26T06:21:17.603Z,0
2022-11-26T06:22:34.474Z,0
2022-11-26T06:23:56.084Z,0
2022-11-26T06:25:08.701Z,0.23
2022-11-26T06:26:25.423Z,0
2022-11-26T06:27:42.625Z,0
2022-11-26T06:28:59.458Z,0.3
2022-11-26T06:30:16.391Z,0
2022-11-26T06:31:33.837Z,0
2022-11-26T06:32:52.226Z,0
2022-11-26T06:34:09.877Z,0.14
2022-11-26T06:35:27.415Z,0
2022-11-26T06:36:44.477Z,0.27
2022-11-26T06:38:01.397Z,0.32
2022-11-26T06:39:18.487Z,0.22
2022-11-26T06:40:35.398Z,0.33
2022-11-26T06:41:52.450Z,0.4
2022-11-26T06:43:09.419Z,0.38
2022-11-26T06:44:26.490Z,0.14
2022-11-26T06:45:43.841Z,0.44
2022-11-26T06:47:01.429Z,0.31
2022-11-26T06:48:18.424Z,0.27
2022-11-26T06:49:35.574Z,0
2022-11-26T06:50:53.332Z,0
2022-11-26T06:52:10.495Z,0
2022-11-26T06:53:27.434Z,0.22
2022-11-26T06:54:44.489Z,0.12
2022-11-26T06:56:01.453Z,0.36
2022-11-26T06:57:18.451Z,0.16
2022-11-26T06:58:35.466Z,0.32
2022-11-26T06:59:52.689Z,0.39
2022-11-26T07:01:10.549Z,0.71
2022-11-26T07:02:27.503Z,0.55
2022-11-26T07:03:44.602Z,0.66
2022-11-26T07:05:02.244Z,0.55
2022-11-26T07:06:19.905Z,0.53
2022-11-26T07:07:37.914Z,0.65
2022-11-26T07:08:55.461Z,0.81
2022-11-26T07:10:12.906Z,0.67
2022-11-26T07:11:30.546Z,0.77
2022-11-26T07:12:47.481Z,0.42
2022-11-26T07:14:04.472Z,0.4
2022-11-26T07:15:21.476Z,0.79
2022-11-26T07:16:38.581Z,0.66
2022-11-26T07:17:55.499Z,0.51
2022-11-26T07:19:12.457Z,0.46
2022-11-26T07:20:30.522Z,0.51
2022-11-26T07:21:47.492Z,0.69
2022-11-26T07:23:04.505Z,0.36
2022-11-26T07:24:21.471Z,0.2
2022-11-26T07:25:38.479Z,0.28
2022-11-26T07:26:55.508Z,0.51
2022-11-26T07:28:12.473Z,0.42
2022-11-26T07:29:29.575Z,0.51
2022-11-26T07:30:46.695Z,0.57
2022-11-26T07:32:04.002Z,0.55
2022-11-26T07:33:21.696Z,0.39
2022-11-26T07:34:38.851Z,0.54
2022-11-26T07:35:55.488Z,0.42
2022-11-26T07:37:12.472Z,1.15
2022-11-26T07:38:29.473Z,0.73
2022-11-26T07:39:46.835Z,0.62
2022-11-26T07:41:03.495Z,0.55
2022-11-26T07:42:20.564Z,0.76
2022-11-26T07:43:37.544Z,0.49
2022-11-26T07:44:54.633Z,0.41
2022-11-26T07:46:11.594Z,0.5
2022-11-26T07:47:28.740Z,0.53
2022-11-26T07:48:45.493Z,0.66
2022-11-26T07:50:02.809Z,0.61
2022-11-26T07:51:20.206Z,0.48
2022-11-26T07:52:37.532Z,0.52
2022-11-26T07:53:55.012Z,0.44
2022-11-26T07:55:13.293Z,0.5
2022-11-26T07:56:30.726Z,0.41
2022-11-26T07:57:47.941Z,0.46
2022-11-26T07:59:05.870Z,0.59
2022-11-26T08:00:22.592Z,0.96
2022-11-26T08:01:40.089Z,0.46
2022-11-26T08:02:56.563Z,0.45
2022-11-26T08:04:13.528Z,0.58
2022-11-26T08:05:30.579Z,0.97
2022-11-26T08:06:47.687Z,0.96
2022-11-26T08:08:04.646Z,0.62
2022-11-26T08:09:21.534Z,0.45
2022-11-26T08:10:38.914Z,0.34
2022-11-26T08:11:56.849Z,0.73
2022-11-26T08:13:13.610Z,0.96
2022-11-26T08:14:30.530Z,0.47
2022-11-26T08:15:47.550Z,0.49
2022-11-26T08:17:05.199Z,0.63
2022-11-26T08:18:22.548Z,0.48
2022-11-26T08:19:39.858Z,0.69
2022-11-26T08:20:57.249Z,0.38
2022-11-26T08:22:14.675Z,0.61
2022-11-26T08:23:31.918Z,0.65
2022-11-26T08:24:49.559Z,0.55
2022-11-26T08:26:21.839Z,0.32
2022-11-26T08:27:23.888Z,0.74
2022-11-26T08:28:40.640Z,0.29
2022-11-26T08:29:57.731Z,0.68
2022-11-26T08:31:15.346Z,0.57
2022-11-26T08:32:32.633Z,0.66
2022-11-26T08:33:50.269Z,0.73
2022-11-26T08:35:07.964Z,0.33
2022-11-26T08:36:25.636Z,0.42
2022-11-26T08:37:42.824Z,0.43
2022-11-26T08:39:00.617Z,0.85
2022-11-26T08:40:17.628Z,0.33
2022-11-26T08:41:34.727Z,0.65
2022-11-26T08:42:51.661Z,0.16
2022-11-26T08:44:09.044Z,0.35
2022-11-26T08:45:25.599Z,0.43
2022-11-26T08:46:42.676Z,0.19
2022-11-26T08:47:59.848Z,0.48
2022-11-26T08:49:17.487Z,0.31
2022-11-26T08:50:34.686Z,0.67
2022-11-26T08:51:51.614Z,0.34
2022-11-26T08:53:08.638Z,0.43
2022-11-26T08:54:25.612Z,0.4
2022-11-26T08:55:59.546Z,0.29
2022-11-26T08:57:00.099Z,0.37
2022-11-26T08:58:17.593Z,0.32
2022-11-26T08:59:34.606Z,0.43
2022-11-26T09:00:51.619Z,0.61
2022-11-26T09:02:10.007Z,0.48
2022-11-26T09:03:25.688Z,0.69
2022-11-26T09:04:42.607Z,0.57
2022-11-26T09:06:00.291Z,0.33
2022-11-26T09:07:17.689Z,0.39
2022-11-26T09:08:34.648Z,0.36
2022-11-26T09:09:51.600Z,0.48
2022-11-26T09:11:08.610Z,0.85
2022-11-26T09:12:25.746Z,0.64
2022-11-26T09:13:42.659Z,0.8
2022-11-26T09:15:00.957Z,0.47
2022-11-26T09:16:17.672Z,0.91
2022-11-26T09:17:35.722Z,0.67
2022-11-26T09:18:52.653Z,0.86
2022-11-26T09:20:09.704Z,0.57
2022-11-26T09:21:26.813Z,1.1
2022-11-26T09:22:43.662Z,0.92
2022-11-26T09:24:00.817Z,1.2
2022-11-26T09:25:17.881Z,1.72
2022-11-26T09:26:34.981Z,0.66
2022-11-26T09:27:51.633Z,1.38
2022-11-26T09:29:08.670Z,1.22
2022-11-26T09:30:25.736Z,1.62
2022-11-26T09:31:55.251Z,0.79
2022-11-26T09:32:59.794Z,1.16
2022-11-26T09:38:14.700Z,1.44
2022-11-26T09:39:31.695Z,1.27
2022-11-26T09:40:48.674Z,1.08
2022-11-26T09:42:05.693Z,0.89
2022-11-26T09:43:22.667Z,1.08
2022-11-26T09:44:40.631Z,1.2
2022-11-26T09:50:08.928Z,1.23
2022-11-26T09:55:20.719Z,0.94
2022-11-26T09:56:37.677Z,1.29
2022-11-26T09:57:56.279Z,1.48
2022-11-26T09:59:13.699Z,1.22
2022-11-26T10:00:30.684Z,2.01
2022-11-26T10:01:47.789Z,1.24
2022-11-26T10:03:04.772Z,0.78
2022-11-26T10:04:21.705Z,1.41
2022-11-26T10:05:38.684Z,2.09
2022-11-26T10:06:55.695Z,0.98
2022-11-26T10:08:12.730Z,1.61
2022-11-26T10:09:29.740Z,1.11
2022-11-26T10:10:47.550Z,1.88
2022-11-26T10:12:05.138Z,0.84
2022-11-26T10:13:22.761Z,2.19
2022-11-26T10:14:39.915Z,1.29
2022-11-26T10:15:56.723Z,1.07
2022-11-26T10:17:13.768Z,1.43
2022-11-26T10:18:30.779Z,1.27
2022-11-26T10:19:47.728Z,1.25
2022-11-26T10:21:04.748Z,1.57
2022-11-26T10:22:21.704Z,1.26
2022-11-26T10:23:38.741Z,0.74
2022-11-26T10:24:55.702Z,0.9
2022-11-26T10:26:12.765Z,0.88
2022-11-26T10:27:29.739Z,1.08
2022-11-26T10:28:46.751Z,0.81
2022-11-26T10:30:03.990Z,1.11
2022-11-26T10:31:20.833Z,0.94
2022-11-26T10:32:37.707Z,0.76
2022-11-26T10:33:54.709Z,0.84
2022-11-26T10:35:11.748Z,1.16
2022-11-26T10:36:28.724Z,1.63
2022-11-26T10:37:45.957Z,1.17
2022-11-26T10:39:02.890Z,1.19
2022-11-26T10:40:19.883Z,1.05
2022-11-26T10:41:36.769Z,1.22
2022-11-26T10:42:54.293Z,2.27
2022-11-26T10:44:11.809Z,1.43
2022-11-26T10:45:28.748Z,0.74
2022-11-26T10:46:45.848Z,1.24
2022-11-26T10:48:02.760Z,2.25
2022-11-26T10:49:20.879Z,1.78
2022-11-26T10:50:47.439Z,2.47
2022-11-26T10:51:54.771Z,1.17
2022-11-26T10:53:11.771Z,0.72
2022-11-26T10:54:28.766Z,0.92
2022-11-26T10:55:45.787Z,1.55
2022-11-26T10:57:02.855Z,1.56
2022-11-26T10:58:20.347Z,1.52
2022-11-26T10:59:38.080Z,2
2022-11-26T11:00:55.342Z,0.73
2022-11-26T11:02:12.786Z,3.66
2022-11-26T11:03:59.570Z,1.84
2022-11-26T11:04:47.510Z,2.72
2022-11-26T11:06:05.579Z,1.92
2022-11-26T11:07:22.844Z,1.58
2022-11-26T11:08:39.785Z,1.16
2022-11-26T11:09:56.808Z,0.96
2022-11-26T11:11:14.502Z,1.14
2022-11-26T11:12:31.814Z,1.6
2022-11-26T11:13:48.765Z,1.29
2022-11-26T11:15:05.937Z,1.57
2022-11-26T11:16:22.863Z,1.23
2022-11-26T11:17:39.784Z,1.79
2022-11-26T11:18:56.790Z,1.09
2022-11-26T11:20:13.871Z,2.42
2022-11-26T11:21:30.781Z,1.51
2022-11-26T11:22:47.781Z,0.77
2022-11-26T11:24:09.306Z,1.27
2022-11-26T11:25:22.849Z,1.53
2022-11-26T11:26:40.971Z,1.54
2022-11-26T11:27:57.876Z,0.81
2022-11-26T11:29:15.080Z,0.89
2022-11-26T11:30:32.038Z,1.84
2022-11-26T11:31:48.879Z,1.19
2022-11-26T11:33:05.821Z,0.8
2022-11-26T11:34:22.803Z,0.54
2022-11-26T11:35:39.913Z,0.73
2022-11-26T11:36:57.079Z,1.64
2022-11-26T11:38:13.913Z,1.32
2022-11-26T11:39:30.826Z,1.41
2022-11-26T11:40:47.869Z,1.32
2022-11-26T11:42:04.869Z,1.69
2022-11-26T11:43:21.923Z,1.13
2022-11-26T11:44:39.109Z,1.5
2022-11-26T11:45:55.864Z,1.46
2022-11-26T11:47:13.095Z,1.19
2022-11-26T11:48:29.937Z,1.88
2022-11-26T11:49:47.140Z,1.55
2022-11-26T11:51:03.867Z,0.86
2022-11-26T11:52:20.858Z,1.02
2022-11-26T11:53:37.841Z,1.59
2022-11-26T11:54:54.934Z,0.87
2022-11-26T11:56:11.850Z,1.62
2022-11-26T11:57:28.865Z,1.07
2022-11-26T11:58:45.939Z,0.74
2022-11-26T12:00:03.053Z,0.89
2022-11-26T12:01:20.229Z,1.41
2022-11-26T12:02:37.915Z,1.35
2022-11-26T12:03:54.919Z,1.47
2022-11-26T12:05:11.937Z,1.15
2022-11-26T12:06:28.861Z,0.89
2022-11-26T12:07:45.975Z,0.65
2022-11-26T12:09:03.240Z,1.21
2022-11-26T12:10:20.909Z,0.38
2022-11-26T12:11:37.907Z,0.5
2022-11-26T12:12:54.929Z,0.61
2022-11-26T12:14:12.077Z,0.51
2022-11-26T12:15:28.933Z,0.45
2022-11-26T12:16:45.945Z,0.64
2022-11-26T12:18:03.049Z,0.44
2022-11-26T12:19:19.913Z,0.81
2022-11-26T12:20:36.879Z,1.08
2022-11-26T12:21:53.936Z,0.68
2022-11-26T12:23:14.277Z,0.72
2022-11-26T12:24:27.885Z,0.67
2022-11-26T12:25:44.868Z,0.71
2022-11-26T12:27:02.060Z,1.15
2022-11-26T12:28:19.071Z,0.31
2022-11-26T12:29:35.943Z,0.37
2022-11-26T12:30:52.894Z,0.65
2022-11-26T12:32:09.938Z,0.54
2022-11-26T12:33:26.899Z,0.78
2022-11-26T12:34:43.908Z,0.43
2022-11-26T12:36:00.950Z,0.52
2022-11-26T12:37:17.943Z,0.41
2022-11-26T12:38:34.931Z,0.84
2022-11-26T12:39:53.754Z,0.81
2022-11-26T12:41:09.440Z,0.94
2022-11-26T12:42:26.885Z,0.86
2022-11-26T12:43:43.909Z,0.75
2022-11-26T12:45:01.014Z,1.3
2022-11-26T12:46:17.947Z,0.52
2022-11-26T12:47:34.914Z,0.79
2022-11-26T12:48:51.904Z,0.54
2022-11-26T12:50:08.941Z,0.91
2022-11-26T12:51:25.934Z,0.68
2022-11-26T12:52:42.907Z,1.21
2022-11-26T12:53:59.977Z,0.75
2022-11-26T12:55:17.065Z,0.47
2022-11-26T12:56:34.425Z,0.72
2022-11-26T12:57:51.954Z,0.36
2022-11-26T12:59:08.924Z,0.53
2022-11-26T13:00:29.087Z,1.13
2022-11-26T13:01:42.945Z,0.86
2022-11-26T13:02:59.936Z,0.81
2022-11-26T13:05:34.010Z,0.55
2022-11-26T13:06:50.949Z,0.65
2022-11-26T13:08:07.977Z,0.61
2022-11-26T13:09:24.977Z,1.11
2022-11-26T13:10:41.958Z,0.29
2022-11-26T13:11:58.962Z,0.35
2022-11-26T13:13:15.972Z,0.74
2022-11-26T13:14:32.946Z,0.79
2022-11-26T13:15:49.974Z,0.57
2022-11-26T13:17:06.992Z,0.38
2022-11-26T13:18:24.090Z,0.74
2022-11-26T13:19:41.174Z,0.81
2022-11-26T13:20:58.013Z,0.53
2022-11-26T13:22:14.932Z,0.64
2022-11-26T13:23:31.982Z,0.66
2022-11-26T13:24:48.946Z,0.86
2022-11-26T13:26:05.982Z,0.74
2022-11-26T13:27:22.988Z,0.62
2022-11-26T13:28:39.959Z,0.92
2022-11-26T13:29:57.063Z,0.85
2022-11-26T13:31:14.123Z,0.82
2022-11-26T13:32:31.041Z,0.42
2022-11-26T13:33:47.968Z,0.63
2022-11-26T13:35:05.371Z,1.13
2022-11-26T13:36:22.955Z,0.88
2022-11-26T13:37:40.191Z,0.75
2022-11-26T13:38:57.549Z,0.83
2022-11-26T13:40:14.001Z,0.4
2022-11-26T13:41:31.011Z,0.35
2022-11-26T13:42:48.014Z,0.57
2022-11-26T13:44:05.015Z,0.81
2022-11-26T13:45:21.994Z,1.25
2022-11-26T13:46:39.036Z,0.9
2022-11-26T13:47:56.037Z,0.38
2022-11-26T13:49:13.255Z,0.3
2022-11-26T13:50:30.023Z,0.56
2022-11-26T13:51:47.129Z,0.56
2022-11-26T13:53:04.032Z,0.86
2022-11-26T13:54:21.038Z,0.99
2022-11-26T13:55:38.163Z,0.95
2022-11-26T13:56:55.001Z,1.29
2022-11-26T13:58:12.017Z,1.02
2022-11-26T13:59:29.335Z,0.76
2022-11-26T14:00:46.030Z,0.71
2022-11-26T14:02:03.289Z,0.9
2022-11-26T14:03:20.016Z,0.76
2022-11-26T14:04:37.963Z,0.6
2022-11-26T14:05:55.073Z,0.34
2022-11-26T14:07:12.044Z,0.74
2022-11-26T14:08:29.043Z,1.03
2022-11-26T14:09:46.019Z,0.64
2022-11-26T14:11:03.355Z,0.36
2022-11-26T14:12:20.055Z,0.71
2022-11-26T14:13:37.029Z,0.7
2022-11-26T14:14:54.077Z,1.23
2022-11-26T14:16:11.290Z,0.95
2022-11-26T14:17:32.611Z,0.59
2022-11-26T14:18:45.322Z,0.92
2022-11-26T14:20:02.033Z,0.6
2022-11-26T14:21:19.068Z,1.16
2022-11-26T14:22:36.027Z,0.87
2022-11-26T14:23:53.037Z,1.04
2022-11-26T14:25:10.208Z,1.12
2022-11-26T14:26:27.049Z,0.71
2022-11-26T14:27:44.059Z,0.55
2022-11-26T14:29:04.919Z,0.25
2022-11-26T14:30:18.279Z,1.08
2022-11-26T14:31:35.197Z,1.18
2022-11-26T14:32:52.106Z,1.27
2022-11-26T14:34:09.053Z,1.14
2022-11-26T14:35:29.262Z,0.83
2022-11-26T14:36:43.058Z,0.96
2022-11-26T14:38:00.073Z,1.28
2022-11-26T14:39:17.084Z,0.96
2022-11-26T14:40:34.158Z,1.05
2022-11-26T14:41:51.151Z,0.69
2022-11-26T14:43:08.140Z,0.65
2022-11-26T14:44:25.099Z,1
2022-11-26T14:45:42.149Z,0.88
2022-11-26T14:46:59.068Z,0.89
2022-11-26T14:48:16.740Z,0.78
2022-11-26T14:49:34.349Z,0.9
2022-11-26T14:50:51.067Z,0.72
2022-11-26T14:52:08.119Z,0.8
2022-11-26T14:53:25.148Z,1.06
2022-11-26T14:54:42.253Z,0.53
2022-11-26T14:55:59.069Z,0.76
2022-11-26T14:57:16.077Z,1.02
2022-11-26T14:58:33.100Z,0.77
2022-11-26T14:59:50.168Z,1.01
2022-11-26T15:01:07.146Z,0.78
2022-11-26T15:02:24.169Z,0.85
2022-11-26T15:03:41.163Z,0.7
2022-11-26T15:04:58.105Z,0.47
2022-11-26T15:06:15.240Z,0.36
2022-11-26T15:07:32.213Z,0.55
2022-11-26T15:08:49.192Z,1.05
2022-11-26T15:10:06.298Z,0.9
2022-11-26T15:11:23.116Z,0.99
2022-11-26T15:12:40.179Z,0.53
2022-11-26T15:13:58.242Z,0.94
2022-11-26T15:15:15.159Z,0.79
2022-11-26T15:16:32.220Z,0.47
2022-11-26T15:17:49.115Z,0.3
2022-11-26T15:19:06.161Z,0.38
2022-11-26T15:20:23.117Z,0.33
2022-11-26T15:21:40.259Z,0.11
2022-11-26T15:22:57.143Z,0.27
2022-11-26T15:24:14.194Z,0.41
2022-11-26T15:25:31.113Z,0.09
2022-11-26T15:26:48.153Z,0.26
2022-11-26T15:28:05.180Z,0
2022-11-26T15:29:22.222Z,0.54
2022-11-26T15:30:39.274Z,0.3
2022-11-26T15:31:56.739Z,0.32
2022-11-26T15:33:14.125Z,0.51
2022-11-26T15:34:31.194Z,0.4
2022-11-26T15:35:48.144Z,0.24
2022-11-26T15:37:05.148Z,0.47
2022-11-26T15:38:22.139Z,0.39
2022-11-26T15:39:39.128Z,0.39
2022-11-26T15:40:56.232Z,0
2022-11-26T15:42:13.376Z,0
2022-11-26T15:43:30.180Z,0
2022-11-26T15:44:47.510Z,0.36
2022-11-26T15:46:04.250Z,0.12
2022-11-26T15:47:21.194Z,0
2022-11-26T15:48:53.783Z,0
2022-11-26T15:49:55.598Z,0.31
2022-11-26T15:51:13.166Z,0.05
2022-11-26T15:52:30.280Z,0.16
2022-11-26T15:53:47.152Z,0.1
2022-11-26T15:55:12.305Z,0.09
2022-11-26T15:56:21.216Z,0.18
2022-11-26T15:57:38.253Z,0.3
2022-11-26T15:58:55.216Z,0.36
2022-11-26T16:00:12.164Z,0.36
2022-11-26T16:01:29.220Z,0.21
2022-11-26T16:02:46.353Z,0.4
2022-11-26T16:04:03.231Z,0.37
2022-11-26T16:05:21.006Z,0.73
2022-11-26T16:06:38.217Z,0.37
2022-11-26T16:07:55.324Z,0.64
2022-11-26T16:09:16.151Z,0.21
2022-11-26T16:10:29.171Z,0.36
2022-11-26T16:11:46.221Z,0.38
2022-11-26T16:18:38.223Z,0.07
2022-11-26T16:19:56.111Z,0.18
2022-11-26T16:21:14.238Z,0.16
2022-11-26T16:22:31.229Z,0.32
2022-11-26T16:23:49.842Z,0.13
2022-11-26T16:25:08.481Z,0.23
2022-11-26T16:26:28.262Z,0.13
2022-11-26T16:27:50.386Z,0.13
2022-11-26T16:29:05.375Z,0
2022-11-26T16:30:23.473Z,0
2022-11-26T16:31:41.556Z,0.21
2022-11-26T16:32:59.275Z,0
2022-11-26T16:34:17.195Z,0.27
2022-11-26T16:35:48.912Z,0.27
2022-11-26T16:36:52.079Z,0.08
2022-11-26T16:38:09.894Z,0.27
2022-11-26T16:39:30.514Z,0.13
2022-11-26T16:40:48.542Z,0
2022-11-26T16:42:06.024Z,0.52
2022-11-26T16:43:24.257Z,0.35
2022-11-26T16:44:42.714Z,0.26
2022-11-26T16:46:01.299Z,0
2022-11-26T16:47:19.815Z,0
2022-11-26T16:48:37.895Z,0
2022-11-26T16:49:55.955Z,0
2022-11-26T16:51:13.935Z,0
2022-11-26T16:52:32.320Z,0
2022-11-26T16:53:51.902Z,0
2022-11-26T16:55:09.611Z,0.62
2022-11-26T16:56:26.550Z,0.18
2022-11-26T16:57:44.219Z,0.38
2022-11-26T16:59:02.579Z,0.19
2022-11-26T17:00:19.872Z,0.28
2022-11-26T17:01:39.148Z,0.42
2022-11-26T17:02:56.812Z,0.22
2022-11-26T17:04:13.453Z,0.2
2022-11-26T17:05:32.308Z,0.14
2022-11-26T17:06:50.887Z,0.78
2022-11-26T17:08:09.674Z,0.22
2022-11-26T17:09:27.935Z,0
2022-11-26T17:10:45.890Z,0.27
2022-11-26T17:12:04.478Z,0.11
2022-11-26T17:13:23.368Z,0.19
2022-11-26T17:14:41.538Z,0.14
2022-11-26T17:16:00.401Z,0.18
2022-11-26T17:17:19.164Z,0.2
2022-11-26T17:18:35.750Z,0.17
2022-11-26T17:19:54.579Z,0.27
2022-11-26T17:21:12.494Z,0.36
2022-11-26T17:22:30.151Z,0
2022-11-26T17:23:48.193Z,0
2022-11-26T17:25:06.548Z,0
2022-11-26T17:27:42.608Z,0
2022-11-26T17:29:00.486Z,0.22
2022-11-26T17:30:18.640Z,0.08
2022-11-26T17:31:37.306Z,0
2022-11-26T17:32:56.297Z,0
2022-11-26T17:35:33.058Z,0
2022-11-26T17:36:52.825Z,0
2022-11-26T17:38:10.892Z,0
2022-11-26T17:39:29.890Z,0
2022-11-26T17:40:49.236Z,0
2022-11-26T17:42:09.500Z,0
2022-11-26T17:43:29.083Z,0
2022-11-26T17:44:48.642Z,0
2022-11-26T17:46:08.315Z,0
2022-11-26T17:47:28.539Z,0.25
2022-11-26T17:48:48.844Z,0.23
2022-11-26T17:50:08.871Z,0.51
2022-11-26T17:51:29.123Z,0.38
2022-11-26T17:52:46.877Z,0.43
2022-11-26T17:54:07.087Z,0.19
2022-11-26T17:55:26.497Z,0
2022-11-26T17:56:45.729Z,0.22
2022-11-26T17:58:06.019Z,0
2022-11-26T17:59:26.295Z,0
2022-11-26T18:00:45.934Z,0.32
2022-11-26T18:02:06.387Z,0.35